Birds Landing, California
Current Conditions -  °F | °C
As of 3:58 PM on Thursday 18 Dec 2014 (Local Time) from KSUU Reporting Station
Overcast Overcast  
Wind Chill: 55°   Ceiling: 4600
Heat Index: 55°   Visibility: 10mi
Dew Point: 49°   Wind: 3mph
Humidity: 79%   Direction: 330°NNW
Pressure: 30.15"   Gusts: NA
Location:  38.13°N, 121.87°W
Report Text: KSUU 182358Z AUTO 33003KT 10SM SCT019 OVC046 13/09 A3015 RMK AO2 CIG 016 RWY03R SLP217 T01270092 10128 20111 55003 $
Loading
Personal Weather Stations






























Interactive Weather Map New forecast layout! Learn more

10-Day Weather Forecast

Advertisements
Track Severe Weather on mobile